sensor_id;sensor_type;location;lat;lon;timestamp;temperature;humidity
36206;DHT22;22242;48.796;9.930;2023-03-23T00:00:19;12.60;93.40
36206;DHT22;22242;48.796;9.930;2023-03-23T00:02:47;12.70;93.20
36206;DHT22;22242;48.796;9.930;2023-03-23T00:05:14;12.80;93.10
36206;DHT22;22242;48.796;9.930;2023-03-23T00:07:41;12.70;93.60
36206;DHT22;22242;48.796;9.930;2023-03-23T00:10:11;12.70;94.00
36206;DHT22;22242;48.796;9.930;2023-03-23T00:12:38;12.60;94.10
36206;DHT22;22242;48.796;9.930;2023-03-23T00:15:08;12.60;94.20
36206;DHT22;22242;48.796;9.930;2023-03-23T00:17:43;12.80;93.20
36206;DHT22;22242;48.796;9.930;2023-03-23T00:20:11;12.80;94.00
36206;DHT22;22242;48.796;9.930;2023-03-23T00:22:38;12.80;94.00
36206;DHT22;22242;48.796;9.930;2023-03-23T00:25:07;12.80;93.70
36206;DHT22;22242;48.796;9.930;2023-03-23T00:27:34;12.90;93.80
36206;DHT22;22242;48.796;9.930;2023-03-23T00:30:02;12.80;94.90
36206;DHT22;22242;48.796;9.930;2023-03-23T00:32:29;12.70;94.60
36206;DHT22;22242;48.796;9.930;2023-03-23T00:34:58;12.80;94.40
36206;DHT22;22242;48.796;9.930;2023-03-23T00:37:25;12.70;94.60
36206;DHT22;22242;48.796;9.930;2023-03-23T00:39:52;12.80;94.70
36206;DHT22;22242;48.796;9.930;2023-03-23T00:42:23;12.80;94.30
36206;DHT22;22242;48.796;9.930;2023-03-23T00:44:52;13.00;93.50
36206;DHT22;22242;48.796;9.930;2023-03-23T00:47:25;13.00;93.70
36206;DHT22;22242;48.796;9.930;2023-03-23T00:49:52;13.00;93.60
36206;DHT22;22242;48.796;9.930;2023-03-23T00:52:23;13.10;94.10
36206;DHT22;22242;48.796;9.930;2023-03-23T00:54:50;13.10;94.20
36206;DHT22;22242;48.796;9.930;2023-03-23T00:57:17;13.00;94.40
36206;DHT22;22242;48.796;9.930;2023-03-23T00:59:44;12.90;95.80
36206;DHT22;22242;48.796;9.930;2023-03-23T01:02:13;13.00;96.40
36206;DHT22;22242;48.796;9.930;2023-03-23T01:04:42;13.00;95.50
36206;DHT22;22242;48.796;9.930;2023-03-23T01:07:10;13.00;96.30
36206;DHT22;22242;48.796;9.930;2023-03-23T01:09:40;13.00;95.30
36206;DHT22;22242;48.796;9.930;2023-03-23T01:12:11;13.00;95.50
36206;DHT22;22242;48.796;9.930;2023-03-23T01:14:40;12.90;95.60
36206;DHT22;22242;48.796;9.930;2023-03-23T01:17:09;13.00;95.10
36206;DHT22;22242;48.796;9.930;2023-03-23T01:19:36;12.90;96.10
36206;DHT22;22242;48.796;9.930;2023-03-23T01:22:03;12.80;96.40
36206;DHT22;22242;48.796;9.930;2023-03-23T01:24:31;12.80;96.00
36206;DHT22;22242;48.796;9.930;2023-03-23T01:26:59;12.80;95.90
36206;DHT22;22242;48.796;9.930;2023-03-23T01:29:32;12.80;95.60
36206;DHT22;22242;48.796;9.930;2023-03-23T01:32:00;12.80;96.20
36206;DHT22;22242;48.796;9.930;2023-03-23T01:34:27;12.80;96.70
36206;DHT22;22242;48.796;9.930;2023-03-23T01:36:55;12.70;96.10
36206;DHT22;22242;48.796;9.930;2023-03-23T01:39:22;12.60;96.40
36206;DHT22;22242;48.796;9.930;2023-03-23T01:41:49;12.60;96.50
36206;DHT22;22242;48.796;9.930;2023-03-23T01:47:25;12.60;96.80
36206;DHT22;22242;48.796;9.930;2023-03-23T01:49:53;12.60;98.00
36206;DHT22;22242;48.796;9.930;2023-03-23T01:52:23;12.60;96.90
36206;DHT22;22242;48.796;9.930;2023-03-23T01:54:56;12.50;98.20
36206;DHT22;22242;48.796;9.930;2023-03-23T01:57:25;12.50;98.80
36206;DHT22;22242;48.796;9.930;2023-03-23T01:59:56;12.50;97.70
36206;DHT22;22242;48.796;9.930;2023-03-23T02:02:41;12.60;97.50
36206;DHT22;22242;48.796;9.930;2023-03-23T02:05:13;12.50;97.20
36206;DHT22;22242;48.796;9.930;2023-03-23T02:07:42;12.40;99.90
36206;DHT22;22242;48.796;9.930;2023-03-23T02:10:10;12.50;98.80
36206;DHT22;22242;48.796;9.930;2023-03-23T02:12:37;12.30;99.90
36206;DHT22;22242;48.796;9.930;2023-03-23T02:15:05;12.30;99.90
36206;DHT22;22242;48.796;9.930;2023-03-23T02:17:38;12.10;99.90
36206;DHT22;22242;48.796;9.930;2023-03-23T02:20:18;12.10;99.90
36206;DHT22;22242;48.796;9.930;2023-03-23T02:25:58;12.50;99.00
36206;DHT22;22242;48.796;9.930;2023-03-23T02:31:56;13.10;96.70
36206;DHT22;22242;48.796;9.930;2023-03-23T02:34:31;13.20;96.00
36206;DHT22;22242;48.796;9.930;2023-03-23T02:37:03;13.10;95.40
36206;DHT22;22242;48.796;9.930;2023-03-23T02:39:38;13.30;95.40
36206;DHT22;22242;48.796;9.930;2023-03-23T02:42:09;13.40;94.70
36206;DHT22;22242;48.796;9.930;2023-03-23T02:44:38;13.40;95.60
36206;DHT22;22242;48.796;9.930;2023-03-23T02:47:11;13.60;95.10
36206;DHT22;22242;48.796;9.930;2023-03-23T02:49:43;13.70;94.30
36206;DHT22;22242;48.796;9.930;2023-03-23T02:52:14;13.60;94.80
36206;DHT22;22242;48.796;9.930;2023-03-23T02:54:43;13.80;94.30
36206;DHT22;22242;48.796;9.930;2023-03-23T02:57:12;13.90;93.90
36206;DHT22;22242;48.796;9.930;2023-03-23T02:59:42;13.80;94.60
36206;DHT22;22242;48.796;9.930;2023-03-23T03:02:12;13.80;94.50
36206;DHT22;22242;48.796;9.930;2023-03-23T03:04:47;13.70;94.70
36206;DHT22;22242;48.796;9.930;2023-03-23T03:07:32;13.70;96.40
36206;DHT22;22242;48.796;9.930;2023-03-23T03:10:07;13.80;94.60
36206;DHT22;22242;48.796;9.930;2023-03-23T03:12:44;14.00;94.40
36206;DHT22;22242;48.796;9.930;2023-03-23T03:15:21;14.00;94.40
36206;DHT22;22242;48.796;9.930;2023-03-23T03:17:56;13.80;94.40
36206;DHT22;22242;48.796;9.930;2023-03-23T03:20:26;13.90;94.30
36206;DHT22;22242;48.796;9.930;2023-03-23T03:22:55;13.90;94.10
36206;DHT22;22242;48.796;9.930;2023-03-23T03:25:25;13.90;94.10
36206;DHT22;22242;48.796;9.930;2023-03-23T03:27:55;13.80;94.40
36206;DHT22;22242;48.796;9.930;2023-03-23T03:30:36;14.00;94.10
36206;DHT22;22242;48.796;9.930;2023-03-23T03:33:06;14.00;93.70
36206;DHT22;22242;48.796;9.930;2023-03-23T03:35:36;14.10;94.00
36206;DHT22;22242;48.796;9.930;2023-03-23T03:38:05;14.20;93.60
36206;DHT22;22242;48.796;9.930;2023-03-23T03:40:33;14.20;93.90
36206;DHT22;22242;48.796;9.930;2023-03-23T03:43:01;14.00;94.00
36206;DHT22;22242;48.796;9.930;2023-03-23T03:45:29;14.10;94.10
36206;DHT22;22242;48.796;9.930;2023-03-23T03:47:56;14.20;93.80
36206;DHT22;22242;48.796;9.930;2023-03-23T03:50:24;14.30;93.60
36206;DHT22;22242;48.796;9.930;2023-03-23T03:52:53;14.30;93.50
36206;DHT22;22242;48.796;9.930;2023-03-23T03:55:20;14.30;93.30
36206;DHT22;22242;48.796;9.930;2023-03-23T03:57:49;14.40;93.30
36206;DHT22;22242;48.796;9.930;2023-03-23T04:00:19;14.30;93.60
36206;DHT22;22242;48.796;9.930;2023-03-23T04:02:49;14.30;93.60
36206;DHT22;22242;48.796;9.930;2023-03-23T04:05:31;14.40;93.50
36206;DHT22;22242;48.796;9.930;2023-03-23T04:08:00;14.40;93.30
36206;DHT22;22242;48.796;9.930;2023-03-23T04:10:32;14.40;93.50
36206;DHT22;22242;48.796;9.930;2023-03-23T04:13:00;14.40;93.10
36206;DHT22;22242;48.796;9.930;2023-03-23T04:15:39;14.30;93.60
36206;DHT22;22242;48.796;9.930;2023-03-23T04:18:07;14.30;93.40
36206;DHT22;22242;48.796;9.930;2023-03-23T04:20:35;14.30;93.50
36206;DHT22;22242;48.796;9.930;2023-03-23T04:23:05;14.20;93.60
36206;DHT22;22242;48.796;9.930;2023-03-23T04:25:34;14.20;93.70
36206;DHT22;22242;48.796;9.930;2023-03-23T04:28:02;14.20;93.20
36206;DHT22;22242;48.796;9.930;2023-03-23T04:30:34;14.30;93.00
36206;DHT22;22242;48.796;9.930;2023-03-23T04:33:07;14.20;93.30
36206;DHT22;22242;48.796;9.930;2023-03-23T04:35:35;14.30;92.80
36206;DHT22;22242;48.796;9.930;2023-03-23T04:38:23;14.30;92.90
36206;DHT22;22242;48.796;9.930;2023-03-23T04:40:57;14.30;92.80
36206;DHT22;22242;48.796;9.930;2023-03-23T04:43:41;14.30;92.90
36206;DHT22;22242;48.796;9.930;2023-03-23T04:46:32;14.10;93.10
36206;DHT22;22242;48.796;9.930;2023-03-23T04:49:08;14.20;92.80
36206;DHT22;22242;48.796;9.930;2023-03-23T04:51:38;14.20;93.00
36206;DHT22;22242;48.796;9.930;2023-03-23T04:54:21;14.00;93.20
36206;DHT22;22242;48.796;9.930;2023-03-23T04:56:53;14.00;93.30
36206;DHT22;22242;48.796;9.930;2023-03-23T04:59:20;14.00;93.60
36206;DHT22;22242;48.796;9.930;2023-03-23T05:02:28;14.20;93.20
36206;DHT22;22242;48.796;9.930;2023-03-23T05:04:57;14.40;92.50
36206;DHT22;22242;48.796;9.930;2023-03-23T05:07:27;14.30;92.80
36206;DHT22;22242;48.796;9.930;2023-03-23T05:09:57;14.40;92.50
36206;DHT22;22242;48.796;9.930;2023-03-23T05:12:28;14.30;92.50
36206;DHT22;22242;48.796;9.930;2023-03-23T05:15:05;14.20;93.10
36206;DHT22;22242;48.796;9.930;2023-03-23T05:17:34;14.10;93.20
36206;DHT22;22242;48.796;9.930;2023-03-23T05:20:11;14.10;93.20
36206;DHT22;22242;48.796;9.930;2023-03-23T05:22:42;14.20;93.10
36206;DHT22;22242;48.796;9.930;2023-03-23T05:25:13;14.10;93.30
36206;DHT22;22242;48.796;9.930;2023-03-23T05:27:46;14.10;93.10
36206;DHT22;22242;48.796;9.930;2023-03-23T05:30:37;14.00;93.40
36206;DHT22;22242;48.796;9.930;2023-03-23T05:33:06;14.00;93.60
36206;DHT22;22242;48.796;9.930;2023-03-23T05:35:49;14.00;94.00
36206;DHT22;22242;48.796;9.930;2023-03-23T05:38:22;14.00;93.50
36206;DHT22;22242;48.796;9.930;2023-03-23T05:40:52;14.20;93.00
36206;DHT22;22242;48.796;9.930;2023-03-23T05:43:26;14.20;92.90
36206;DHT22;22242;48.796;9.930;2023-03-23T05:46:06;14.30;92.80
36206;DHT22;22242;48.796;9.930;2023-03-23T05:48:35;14.40;92.30
36206;DHT22;22242;48.796;9.930;2023-03-23T05:51:05;14.40;92.80
36206;DHT22;22242;48.796;9.930;2023-03-23T05:53:36;14.30;92.70
36206;DHT22;22242;48.796;9.930;2023-03-23T05:56:06;14.40;92.50
36206;DHT22;22242;48.796;9.930;2023-03-23T05:58:58;14.40;92.70
36206;DHT22;22242;48.796;9.930;2023-03-23T06:01:27;14.30;92.90
36206;DHT22;22242;48.796;9.930;2023-03-23T06:03:55;14.20;93.10
36206;DHT22;22242;48.796;9.930;2023-03-23T06:06:28;14.30;93.10
36206;DHT22;22242;48.796;9.930;2023-03-23T06:09:05;14.20;93.30
36206;DHT22;22242;48.796;9.930;2023-03-23T06:12:07;14.10;93.50
36206;DHT22;22242;48.796;9.930;2023-03-23T06:14:55;14.20;93.40
36206;DHT22;22242;48.796;9.930;2023-03-23T06:17:31;14.10;93.70
36206;DHT22;22242;48.796;9.930;2023-03-23T06:19:58;14.20;93.50
36206;DHT22;22242;48.796;9.930;2023-03-23T06:22:26;14.10;94.10
36206;DHT22;22242;48.796;9.930;2023-03-23T06:25:06;14.20;93.90
36206;DHT22;22242;48.796;9.930;2023-03-23T06:27:39;14.10;94.50
36206;DHT22;22242;48.796;9.930;2023-03-23T06:30:09;14.10;94.30
36206;DHT22;22242;48.796;9.930;2023-03-23T06:32:38;14.00;94.50
36206;DHT22;22242;48.796;9.930;2023-03-23T06:35:10;14.00;94.80
36206;DHT22;22242;48.796;9.930;2023-03-23T06:37:55;14.10;94.90
36206;DHT22;22242;48.796;9.930;2023-03-23T06:40:32;14.10;95.10
36206;DHT22;22242;48.796;9.930;2023-03-23T06:43:00;14.00;95.20
36206;DHT22;22242;48.796;9.930;2023-03-23T06:45:52;14.10;94.50
36206;DHT22;22242;48.796;9.930;2023-03-23T06:48:38;14.20;94.40
36206;DHT22;22242;48.796;9.930;2023-03-23T06:51:06;14.30;95.10
36206;DHT22;22242;48.796;9.930;2023-03-23T06:53:35;14.30;94.40
36206;DHT22;22242;48.796;9.930;2023-03-23T06:56:04;14.40;94.40
36206;DHT22;22242;48.796;9.930;2023-03-23T06:58:34;14.40;94.40
36206;DHT22;22242;48.796;9.930;2023-03-23T07:01:03;14.50;94.20
36206;DHT22;22242;48.796;9.930;2023-03-23T07:03:38;14.50;94.40
36206;DHT22;22242;48.796;9.930;2023-03-23T07:06:09;14.50;94.40
36206;DHT22;22242;48.796;9.930;2023-03-23T07:08:44;14.60;93.70
36206;DHT22;22242;48.796;9.930;2023-03-23T07:11:16;14.60;94.30
36206;DHT22;22242;48.796;9.930;2023-03-23T07:13:45;14.70;94.10
36206;DHT22;22242;48.796;9.930;2023-03-23T07:16:13;14.80;93.60
36206;DHT22;22242;48.796;9.930;2023-03-23T07:18:40;14.70;93.60
36206;DHT22;22242;48.796;9.930;2023-03-23T07:21:07;15.00;93.00
36206;DHT22;22242;48.796;9.930;2023-03-23T07:23:36;14.90;93.20
36206;DHT22;22242;48.796;9.930;2023-03-23T07:26:05;14.90;92.70
36206;DHT22;22242;48.796;9.930;2023-03-23T07:28:40;15.10;92.60
36206;DHT22;22242;48.796;9.930;2023-03-23T07:31:23;15.30;92.10
36206;DHT22;22242;48.796;9.930;2023-03-23T07:33:51;15.40;92.10
36206;DHT22;22242;48.796;9.930;2023-03-23T07:36:18;15.50;91.70
36206;DHT22;22242;48.796;9.930;2023-03-23T07:38:46;15.50;92.40
36206;DHT22;22242;48.796;9.930;2023-03-23T07:41:15;15.30;92.70
36206;DHT22;22242;48.796;9.930;2023-03-23T07:43:44;15.30;93.00
36206;DHT22;22242;48.796;9.930;2023-03-23T07:46:30;15.30;92.30
36206;DHT22;22242;48.796;9.930;2023-03-23T07:49:07;15.40;92.70
36206;DHT22;22242;48.796;9.930;2023-03-23T07:51:41;15.50;91.90
36206;DHT22;22242;48.796;9.930;2023-03-23T07:54:11;15.60;92.30
36206;DHT22;22242;48.796;9.930;2023-03-23T07:57:04;15.50;92.30
36206;DHT22;22242;48.796;9.930;2023-03-23T07:59:37;15.30;92.20
36206;DHT22;22242;48.796;9.930;2023-03-23T08:02:08;15.30;92.50
36206;DHT22;22242;48.796;9.930;2023-03-23T08:04:49;15.20;92.40
36206;DHT22;22242;48.796;9.930;2023-03-23T08:07:20;15.10;92.50
36206;DHT22;22242;48.796;9.930;2023-03-23T08:09:52;15.10;93.40
36206;DHT22;22242;48.796;9.930;2023-03-23T08:12:22;15.10;94.10
36206;DHT22;22242;48.796;9.930;2023-03-23T08:18:00;15.10;93.90
36206;DHT22;22242;48.796;9.930;2023-03-23T08:20:47;15.10;94.30
36206;DHT22;22242;48.796;9.930;2023-03-23T08:23:41;15.30;94.30
36206;DHT22;22242;48.796;9.930;2023-03-23T08:26:34;15.30;94.00
36206;DHT22;22242;48.796;9.930;2023-03-23T08:29:24;15.40;94.60
36206;DHT22;22242;48.796;9.930;2023-03-23T08:32:10;15.50;94.10
36206;DHT22;22242;48.796;9.930;2023-03-23T08:34:48;15.50;94.30
36206;DHT22;22242;48.796;9.930;2023-03-23T08:37:43;15.60;93.70
36206;DHT22;22242;48.796;9.930;2023-03-23T08:40:24;15.50;94.60
36206;DHT22;22242;48.796;9.930;2023-03-23T08:43:07;15.60;94.40
36206;DHT22;22242;48.796;9.930;2023-03-23T08:46:10;15.80;93.80
36206;DHT22;22242;48.796;9.930;2023-03-23T08:48:57;15.90;93.30
36206;DHT22;22242;48.796;9.930;2023-03-23T08:51:54;15.90;94.20
36206;DHT22;22242;48.796;9.930;2023-03-23T08:54:50;16.00;93.50
36206;DHT22;22242;48.796;9.930;2023-03-23T08:57:29;16.10;93.50
36206;DHT22;22242;48.796;9.930;2023-03-23T09:00:17;16.30;93.50
36206;DHT22;22242;48.796;9.930;2023-03-23T09:02:56;16.50;93.20
36206;DHT22;22242;48.796;9.930;2023-03-23T09:05:30;16.80;93.40
36206;DHT22;22242;48.796;9.930;2023-03-23T09:08:16;16.90;93.20
36206;DHT22;22242;48.796;9.930;2023-03-23T09:14:33;16.80;92.50
36206;DHT22;22242;48.796;9.930;2023-03-23T09:17:00;17.30;92.30
36206;DHT22;22242;48.796;9.930;2023-03-23T09:19:28;16.90;92.50
36206;DHT22;22242;48.796;9.930;2023-03-23T09:21:55;16.80;92.90
36206;DHT22;22242;48.796;9.930;2023-03-23T09:24:24;16.70;92.70
36206;DHT22;22242;48.796;9.930;2023-03-23T09:26:51;16.30;93.30
36206;DHT22;22242;48.796;9.930;2023-03-23T09:29:18;16.30;94.10
36206;DHT22;22242;48.796;9.930;2023-03-23T09:31:47;16.00;95.20
36206;DHT22;22242;48.796;9.930;2023-03-23T09:34:14;15.90;94.90
36206;DHT22;22242;48.796;9.930;2023-03-23T09:36:42;15.90;96.00
36206;DHT22;22242;48.796;9.930;2023-03-23T09:39:10;15.80;96.40
36206;DHT22;22242;48.796;9.930;2023-03-23T09:44:45;15.60;98.90
36206;DHT22;22242;48.796;9.930;2023-03-23T09:47:23;15.50;97.40
36206;DHT22;22242;48.796;9.930;2023-03-23T09:49:56;15.30;99.50
36206;DHT22;22242;48.796;9.930;2023-03-23T09:52:32;15.30;98.90
36206;DHT22;22242;48.796;9.930;2023-03-23T09:55:01;15.40;98.50
36206;DHT22;22242;48.796;9.930;2023-03-23T09:57:34;15.40;99.20
36206;DHT22;22242;48.796;9.930;2023-03-23T10:00:09;15.40;98.70
36206;DHT22;22242;48.796;9.930;2023-03-23T10:02:46;15.40;99.30
36206;DHT22;22242;48.796;9.930;2023-03-23T10:05:27;15.50;99.70
36206;DHT22;22242;48.796;9.930;2023-03-23T10:07:56;15.50;99.90
36206;DHT22;22242;48.796;9.930;2023-03-23T10:10:29;15.50;99.70
36206;DHT22;22242;48.796;9.930;2023-03-23T10:13:03;15.50;99.90
36206;DHT22;22242;48.796;9.930;2023-03-23T10:15:32;15.60;99.90
36206;DHT22;22242;48.796;9.930;2023-03-23T10:18:01;15.80;99.90
36206;DHT22;22242;48.796;9.930;2023-03-23T10:20:35;15.70;99.50
36206;DHT22;22242;48.796;9.930;2023-03-23T10:23:15;15.60;99.90
36206;DHT22;22242;48.796;9.930;2023-03-23T10:25:48;15.60;99.90
36206;DHT22;22242;48.796;9.930;2023-03-23T10:28:21;15.90;99.10
36206;DHT22;22242;48.796;9.930;2023-03-23T10:30:52;15.60;99.80
36206;DHT22;22242;48.796;9.930;2023-03-23T10:33:23;15.80;99.80
36206;DHT22;22242;48.796;9.930;2023-03-23T10:35:55;15.50;99.90
36206;DHT22;22242;48.796;9.930;2023-03-23T10:38:29;15.50;99.90
36206;DHT22;22242;48.796;9.930;2023-03-23T10:41:01;15.50;99.90
36206;DHT22;22242;48.796;9.930;2023-03-23T10:43:30;15.40;99.90
36206;DHT22;22242;48.796;9.930;2023-03-23T10:46:01;15.50;99.90
36206;DHT22;22242;48.796;9.930;2023-03-23T10:48:30;15.40;99.90
36206;DHT22;22242;48.796;9.930;2023-03-23T10:51:01;15.40;99.90
36206;DHT22;22242;48.796;9.930;2023-03-23T10:53:32;15.40;99.90
36206;DHT22;22242;48.796;9.930;2023-03-23T10:56:00;15.40;99.90
36206;DHT22;22242;48.796;9.930;2023-03-23T10:58:28;15.30;99.90
36206;DHT22;22242;48.796;9.930;2023-03-23T11:00:59;15.30;99.90
36206;DHT22;22242;48.796;9.930;2023-03-23T11:03:38;15.40;99.90
36206;DHT22;22242;48.796;9.930;2023-03-23T11:06:07;15.30;99.90
36206;DHT22;22242;48.796;9.930;2023-03-23T11:08:47;15.30;99.90
36206;DHT22;22242;48.796;9.930;2023-03-23T11:11:17;15.40;99.90
36206;DHT22;22242;48.796;9.930;2023-03-23T11:13:46;15.40;99.90
36206;DHT22;22242;48.796;9.930;2023-03-23T11:16:24;15.20;99.90
36206;DHT22;22242;48.796;9.930;2023-03-23T11:18:51;15.50;99.90
36206;DHT22;22242;48.796;9.930;2023-03-23T11:21:21;15.40;99.90
36206;DHT22;22242;48.796;9.930;2023-03-23T11:23:51;15.50;99.90
36206;DHT22;22242;48.796;9.930;2023-03-23T11:26:22;15.50;99.90
36206;DHT22;22242;48.796;9.930;2023-03-23T11:28:53;15.40;99.90
36206;DHT22;22242;48.796;9.930;2023-03-23T11:31:27;15.70;99.90
36206;DHT22;22242;48.796;9.930;2023-03-23T11:33:57;15.90;99.90
36206;DHT22;22242;48.796;9.930;2023-03-23T11:36:31;15.70;99.90
36206;DHT22;22242;48.796;9.930;2023-03-23T11:38:59;15.70;99.90
36206;DHT22;22242;48.796;9.930;2023-03-23T11:41:33;16.00;99.90
36206;DHT22;22242;48.796;9.930;2023-03-23T11:44:08;16.00;99.90
36206;DHT22;22242;48.796;9.930;2023-03-23T11:46:44;16.10;99.90
36206;DHT22;22242;48.796;9.930;2023-03-23T11:49:24;16.50;99.90
36206;DHT22;22242;48.796;9.930;2023-03-23T11:51:58;16.70;99.90
36206;DHT22;22242;48.796;9.930;2023-03-23T11:54:30;17.30;99.90
36206;DHT22;22242;48.796;9.930;2023-03-23T11:56:57;17.40;99.90
36206;DHT22;22242;48.796;9.930;2023-03-23T11:59:28;17.40;99.90
36206;DHT22;22242;48.796;9.930;2023-03-23T12:02:05;17.40;99.90
36206;DHT22;22242;48.796;9.930;2023-03-23T12:04:56;17.60;99.90
36206;DHT22;22242;48.796;9.930;2023-03-23T12:07:33;17.90;99.90
36206;DHT22;22242;48.796;9.930;2023-03-23T12:10:11;18.40;99.90
36206;DHT22;22242;48.796;9.930;2023-03-23T12:12:55;18.40;99.90
36206;DHT22;22242;48.796;9.930;2023-03-23T12:15:28;17.90;99.90
36206;DHT22;22242;48.796;9.930;2023-03-23T12:18:04;18.20;99.90
36206;DHT22;22242;48.796;9.930;2023-03-23T12:20:41;18.80;99.90
36206;DHT22;22242;48.796;9.930;2023-03-23T12:23:19;18.40;99.70
36206;DHT22;22242;48.796;9.930;2023-03-23T12:26:16;17.70;99.90
36206;DHT22;22242;48.796;9.930;2023-03-23T12:28:56;17.50;99.90
36206;DHT22;22242;48.796;9.930;2023-03-23T12:31:30;18.10;99.90
36206;DHT22;22242;48.796;9.930;2023-03-23T12:34:01;18.10;99.70
36206;DHT22;22242;48.796;9.930;2023-03-23T12:36:45;18.10;99.60
36206;DHT22;22242;48.796;9.930;2023-03-23T12:42:28;18.20;99.00
36206;DHT22;22242;48.796;9.930;2023-03-23T12:45:02;18.50;98.50
36206;DHT22;22242;48.796;9.930;2023-03-23T12:47:37;18.40;98.80
36206;DHT22;22242;48.796;9.930;2023-03-23T12:50:13;18.40;97.90
36206;DHT22;22242;48.796;9.930;2023-03-23T12:52:48;18.80;99.20
36206;DHT22;22242;48.796;9.930;2023-03-23T12:55:21;18.90;97.10
36206;DHT22;22242;48.796;9.930;2023-03-23T12:57:54;18.40;98.10
36206;DHT22;22242;48.796;9.930;2023-03-23T13:00:26;18.20;98.40
36206;DHT22;22242;48.796;9.930;2023-03-23T13:03:00;18.20;99.70
36206;DHT22;22242;48.796;9.930;2023-03-23T13:05:42;18.00;99.50
36206;DHT22;22242;48.796;9.930;2023-03-23T13:08:15;17.70;99.50
36206;DHT22;22242;48.796;9.930;2023-03-23T13:10:46;18.10;99.40
36206;DHT22;22242;48.796;9.930;2023-03-23T13:13:18;18.10;99.90
36206;DHT22;22242;48.796;9.930;2023-03-23T13:15:54;18.00;99.40
36206;DHT22;22242;48.796;9.930;2023-03-23T13:18:29;17.90;99.30
36206;DHT22;22242;48.796;9.930;2023-03-23T13:21:10;17.50;99.10
36206;DHT22;22242;48.796;9.930;2023-03-23T13:23:41;17.50;99.70
36206;DHT22;22242;48.796;9.930;2023-03-23T13:26:12;17.10;99.90
36206;DHT22;22242;48.796;9.930;2023-03-23T13:28:55;17.10;99.90
36206;DHT22;22242;48.796;9.930;2023-03-23T13:31:24;16.90;99.90
36206;DHT22;22242;48.796;9.930;2023-03-23T13:34:02;17.20;99.90
36206;DHT22;22242;48.796;9.930;2023-03-23T13:36:34;16.80;99.90
36206;DHT22;22242;48.796;9.930;2023-03-23T13:39:04;17.10;99.90
36206;DHT22;22242;48.796;9.930;2023-03-23T13:41:33;17.30;99.00
36206;DHT22;22242;48.796;9.930;2023-03-23T13:44:19;17.30;99.00
36206;DHT22;22242;48.796;9.930;2023-03-23T13:47:04;17.40;99.70
36206;DHT22;22242;48.796;9.930;2023-03-23T13:49:33;17.70;98.20
36206;DHT22;22242;48.796;9.930;2023-03-23T13:52:14;17.40;98.80
36206;DHT22;22242;48.796;9.930;2023-03-23T13:54:44;17.40;97.80
36206;DHT22;22242;48.796;9.930;2023-03-23T13:57:24;17.20;97.70
36206;DHT22;22242;48.796;9.930;2023-03-23T13:59:57;17.30;97.90
36206;DHT22;22242;48.796;9.930;2023-03-23T14:02:31;17.40;97.60
36206;DHT22;22242;48.796;9.930;2023-03-23T14:05:24;17.30;98.10
36206;DHT22;22242;48.796;9.930;2023-03-23T14:07:57;17.20;98.30
36206;DHT22;22242;48.796;9.930;2023-03-23T14:10:33;16.80;99.20
36206;DHT22;22242;48.796;9.930;2023-03-23T14:13:02;16.80;98.40
36206;DHT22;22242;48.796;9.930;2023-03-23T14:15:30;16.80;98.40
36206;DHT22;22242;48.796;9.930;2023-03-23T14:18:02;16.90;98.50
36206;DHT22;22242;48.796;9.930;2023-03-23T14:20:31;16.80;99.50
36206;DHT22;22242;48.796;9.930;2023-03-23T14:23:01;16.80;99.00
36206;DHT22;22242;48.796;9.930;2023-03-23T14:25:30;16.60;98.20
36206;DHT22;22242;48.796;9.930;2023-03-23T14:27:58;16.70;98.60
36206;DHT22;22242;48.796;9.930;2023-03-23T14:30:27;16.70;99.00
36206;DHT22;22242;48.796;9.930;2023-03-23T14:33:03;16.70;98.90
36206;DHT22;22242;48.796;9.930;2023-03-23T14:35:33;16.70;98.90
36206;DHT22;22242;48.796;9.930;2023-03-23T14:38:03;16.80;98.60
36206;DHT22;22242;48.796;9.930;2023-03-23T14:40:31;16.70;98.80
36206;DHT22;22242;48.796;9.930;2023-03-23T14:42:59;16.50;99.60
36206;DHT22;22242;48.796;9.930;2023-03-23T14:45:26;16.40;99.90
36206;DHT22;22242;48.796;9.930;2023-03-23T14:47:55;16.30;99.90
36206;DHT22;22242;48.796;9.930;2023-03-23T14:50:26;16.30;99.80
36206;DHT22;22242;48.796;9.930;2023-03-23T14:52:57;16.20;99.90
36206;DHT22;22242;48.796;9.930;2023-03-23T14:55:26;16.50;99.50
36206;DHT22;22242;48.796;9.930;2023-03-23T14:58:06;16.50;99.90
36206;DHT22;22242;48.796;9.930;2023-03-23T15:00:36;16.50;99.50
36206;DHT22;22242;48.796;9.930;2023-03-23T15:03:07;16.40;99.50
36206;DHT22;22242;48.796;9.930;2023-03-23T15:05:41;16.40;99.90
36206;DHT22;22242;48.796;9.930;2023-03-23T15:08:14;16.30;99.50
36206;DHT22;22242;48.796;9.930;2023-03-23T15:10:52;16.20;99.20
36206;DHT22;22242;48.796;9.930;2023-03-23T15:13:19;16.30;99.90
36206;DHT22;22242;48.796;9.930;2023-03-23T15:15:47;16.30;99.50
36206;DHT22;22242;48.796;9.930;2023-03-23T15:18:29;16.40;98.80
36206;DHT22;22242;48.796;9.930;2023-03-23T15:20:56;16.40;99.50
36206;DHT22;22242;48.796;9.930;2023-03-23T15:23:28;16.40;98.00
36206;DHT22;22242;48.796;9.930;2023-03-23T15:25:57;16.20;98.20
36206;DHT22;22242;48.796;9.930;2023-03-23T15:28:29;16.20;99.20
36206;DHT22;22242;48.796;9.930;2023-03-23T15:31:01;16.10;98.90
36206;DHT22;22242;48.796;9.930;2023-03-23T15:33:34;16.10;99.50
36206;DHT22;22242;48.796;9.930;2023-03-23T15:36:07;16.20;99.00
36206;DHT22;22242;48.796;9.930;2023-03-23T15:38:35;16.20;99.90
36206;DHT22;22242;48.796;9.930;2023-03-23T15:41:05;16.10;99.80
36206;DHT22;22242;48.796;9.930;2023-03-23T15:43:34;16.10;99.90
36206;DHT22;22242;48.796;9.930;2023-03-23T15:46:03;16.10;99.20
36206;DHT22;22242;48.796;9.930;2023-03-23T15:48:33;16.10;99.80
36206;DHT22;22242;48.796;9.930;2023-03-23T15:51:03;16.10;99.70
36206;DHT22;22242;48.796;9.930;2023-03-23T15:53:32;15.90;99.90
36206;DHT22;22242;48.796;9.930;2023-03-23T15:56:01;15.90;99.90
36206;DHT22;22242;48.796;9.930;2023-03-23T15:58:31;15.90;99.80
36206;DHT22;22242;48.796;9.930;2023-03-23T16:01:01;15.80;99.90
36206;DHT22;22242;48.796;9.930;2023-03-23T16:03:39;15.80;99.70
36206;DHT22;22242;48.796;9.930;2023-03-23T16:06:10;15.80;99.90
36206;DHT22;22242;48.796;9.930;2023-03-23T16:08:37;15.90;99.90
36206;DHT22;22242;48.796;9.930;2023-03-23T16:11:06;15.80;99.90
36206;DHT22;22242;48.796;9.930;2023-03-23T16:13:35;15.80;99.90
36206;DHT22;22242;48.796;9.930;2023-03-23T16:16:02;15.80;99.90
36206;DHT22;22242;48.796;9.930;2023-03-23T16:18:30;15.80;99.90
36206;DHT22;22242;48.796;9.930;2023-03-23T16:20:57;15.70;99.80
36206;DHT22;22242;48.796;9.930;2023-03-23T16:23:24;15.70;99.90
36206;DHT22;22242;48.796;9.930;2023-03-23T16:25:51;15.60;99.90
36206;DHT22;22242;48.796;9.930;2023-03-23T16:28:18;15.60;99.90